Time;durP1;ratioP1;P1;durP2;ratioP2;P2;SDS_P1;SDS_P2;PMS_P1;PMS_P2;Temp;Humidity;BMP_temperature;BMP_pressure;BME280_temperature;BME280_humidity;BME280_pressure;Samples;Min_cycle;Max_cycle;Signal;HPM_P1;HPM_P2
2023/02/16 00:01:21;;;;;;;10.43;4.93;;;;;;;5.50;44.88;93551.31;6230032;23;20031;-80
2023/02/16 00:03:47;;;;;;;9.07;4.20;;;;;;;5.50;44.69;93556.50;6229621;23;20008;-79
2023/02/16 00:06:15;;;;;;;9.90;3.67;;;;;;;5.52;44.86;93558.88;6230210;23;20021;-78
2023/02/16 00:08:48;;;;;;;7.88;4.25;;;;;;;5.52;44.85;93551.09;6224830;23;20016;-78
2023/02/16 00:14:22;;;;;;;9.43;4.55;;;;;;;5.47;45.10;93549.19;6230562;23;20012;-79
2023/02/16 00:16:52;;;;;;;12.40;5.25;;;;;;;5.49;45.60;93548.94;6232137;23;20290;-80
2023/02/16 00:19:20;;;;;;;10.70;5.05;;;;;;;5.47;46.06;93541.41;6231595;23;20076;-79
2023/02/16 00:21:47;;;;;;;8.63;4.82;;;;;;;5.46;46.22;93547.59;6231105;23;19997;-79
2023/02/16 00:24:13;;;;;;;9.63;4.20;;;;;;;5.45;46.03;93538.22;6232070;23;20036;-79
2023/02/16 00:26:40;;;;;;;8.98;4.40;;;;;;;5.41;45.87;93542.31;6231175;23;20031;-79
2023/02/16 00:29:08;;;;;;;10.18;4.30;;;;;;;5.40;45.92;93541.50;6230004;23;20095;-79
2023/02/16 00:31:33;;;;;;;10.48;4.22;;;;;;;5.36;46.10;93531.81;6231054;23;20000;-79
2023/02/16 00:34:21;;;;;;;7.75;3.90;;;;;;;5.39;45.90;93533.94;6230233;23;20339;-79
2023/02/16 00:36:46;;;;;;;9.10;4.10;;;;;;;5.39;46.09;93537.31;6231167;23;20088;-79
2023/02/16 00:39:12;;;;;;;7.68;3.95;;;;;;;5.37;46.18;93541.97;6230505;23;20024;-79
2023/02/16 00:41:50;;;;;;;10.63;3.90;;;;;;;5.33;45.84;93530.44;6225819;23;20036;-77
2023/02/16 00:44:18;;;;;;;9.65;3.80;;;;;;;5.36;45.67;93534.41;6227440;23;20012;-80
2023/02/16 00:46:45;;;;;;;6.95;3.35;;;;;;;5.35;45.17;93520.63;6204549;23;20018;-79
2023/02/16 00:49:18;;;;;;;9.18;3.08;;;;;;;5.33;45.05;93514.06;6230505;23;20087;-79
2023/02/16 00:51:44;;;;;;;6.97;2.95;;;;;;;5.38;44.81;93529.75;6228857;23;20013;-80
2023/02/16 00:54:10;;;;;;;9.77;2.97;;;;;;;5.31;44.97;93516.88;6229917;23;20024;-78
2023/02/16 00:56:36;;;;;;;7.60;3.40;;;;;;;5.35;44.89;93530.22;6229156;23;20023;-79
2023/02/16 00:59:04;;;;;;;7.72;2.90;;;;;;;5.32;44.63;93531.47;6230053;23;20028;-79
2023/02/16 01:01:32;;;;;;;6.78;3.38;;;;;;;5.29;44.67;93524.16;6230382;23;20048;-79
2023/02/16 01:04:01;;;;;;;7.28;2.90;;;;;;;5.26;44.52;93523.81;6229467;23;20005;-79
2023/02/16 01:12:01;;;;;;;7.88;3.15;;;;;;;5.23;44.50;93538.03;6229443;23;20051;-80
2023/02/16 01:14:30;;;;;;;8.25;3.55;;;;;;;5.22;44.86;93532.06;6229386;23;20005;-79
2023/02/16 01:16:58;;;;;;;9.80;4.22;;;;;;;5.19;45.67;93527.28;6229021;23;20095;-79
2023/02/16 01:19:27;;;;;;;8.05;3.47;;;;;;;5.15;45.86;93527.97;6229627;23;20000;-79
2023/02/16 01:21:53;;;;;;;10.88;4.40;;;;;;;5.13;45.64;93523.00;6228195;23;20015;-79
2023/02/16 01:24:18;;;;;;;9.50;4.47;;;;;;;5.14;45.98;93529.78;6230508;23;20005;-80
2023/02/16 01:26:48;;;;;;;8.48;4.50;;;;;;;5.13;46.18;93525.59;6230610;22;20027;-79
2023/02/16 01:29:31;;;;;;;11.00;5.15;;;;;;;5.12;46.43;93525.84;6230800;23;20019;-80
2023/02/16 01:31:57;;;;;;;11.48;5.63;;;;;;;5.10;47.60;93518.28;6229576;23;20078;-79
2023/02/16 01:34:24;;;;;;;11.10;5.07;;;;;;;5.05;48.04;93515.56;6229746;23;20020;-79
2023/02/16 01:36:49;;;;;;;12.40;5.38;;;;;;;5.01;48.68;93506.66;6231914;23;20035;-79
2023/02/16 01:39:18;;;;;;;13.75;5.70;;;;;;;4.97;48.81;93508.91;6231169;23;20001;-79
2023/02/16 01:41:44;;;;;;;10.52;5.28;;;;;;;4.97;48.54;93502.94;6204285;23;20039;-79
2023/02/16 01:44:33;;;;;;;12.40;5.93;;;;;;;4.95;48.48;93502.38;6230336;23;20001;-79
2023/02/16 01:47:29;;;;;;;13.30;6.03;;;;;;;4.94;48.31;93503.41;6230074;23;20040;-78
2023/02/16 01:49:56;;;;;;;11.10;5.47;;;;;;;4.93;48.22;93501.81;6204269;23;20017;-79
2023/02/16 01:52:28;;;;;;;14.40;5.72;;;;;;;4.92;48.17;93495.03;6230764;23;20020;-79
2023/02/16 01:55:00;;;;;;;12.70;5.65;;;;;;;4.93;48.25;93501.81;6228669;23;20088;-80
2023/02/16 01:57:50;;;;;;;11.63;5.60;;;;;;;4.93;48.34;93497.44;6230083;23;20008;-79
2023/02/16 02:00:51;;;;;;;15.85;5.50;;;;;;;4.93;48.38;93494.81;6229419;23;20013;-79
2023/02/16 02:06:19;;;;;;;9.88;4.63;;;;;;;4.87;48.17;93492.34;6228997;23;20043;-79
2023/02/16 02:08:48;;;;;;;14.15;5.18;;;;;;;4.86;48.65;93486.34;6228847;23;20016;-80
2023/02/16 02:11:21;;;;;;;10.10;4.68;;;;;;;4.86;47.90;93488.16;6228984;23;20001;-79
2023/02/16 02:14:04;;;;;;;10.50;5.28;;;;;;;4.83;48.07;93483.44;6229030;23;20012;-79
2023/02/16 02:16:30;;;;;;;10.82;4.97;;;;;;;4.79;48.41;93481.28;6228928;23;20019;-79
2023/02/16 02:18:57;;;;;;;12.35;4.78;;;;;;;4.79;47.74;93483.06;6229661;23;20015;-79
2023/02/16 02:24:53;;;;;;;10.95;5.00;;;;;;;4.80;47.74;93477.66;6229537;23;20023;-79
2023/02/16 02:27:21;;;;;;;12.05;4.93;;;;;;;4.79;47.65;93473.47;6228561;23;20014;-79
2023/02/16 02:30:00;;;;;;;11.65;5.00;;;;;;;4.77;47.89;93472.13;6227746;23;20000;-79
2023/02/16 02:32:33;;;;;;;12.85;5.68;;;;;;;4.74;47.85;93468.19;6228572;23;20023;-79
2023/02/16 02:35:18;;;;;;;13.98;5.55;;;;;;;4.71;48.25;93462.69;6203801;23;20060;-78
2023/02/16 02:38:02;;;;;;;10.52;4.93;;;;;;;4.71;48.21;93468.66;6229401;23;20020;-79
2023/02/16 02:40:43;;;;;;;11.38;4.63;;;;;;;4.69;48.25;93462.13;6228891;23;20027;-79
2023/02/16 02:43:18;;;;;;;10.55;4.38;;;;;;;4.69;47.95;93456.94;6230125;23;20016;-79
2023/02/16 02:45:51;;;;;;;9.73;4.10;;;;;;;4.64;48.87;93454.19;6229249;23;20012;-79
2023/02/16 02:48:17;;;;;;;10.25;4.07;;;;;;;4.58;48.32;93463.69;6228126;23;20008;-79
2023/02/16 02:53:42;;;;;;;10.05;3.33;;;;;;;4.53;47.22;93453.19;6227950;23;20092;-80
2023/02/16 03:01:50;;;;;;;7.95;3.30;;;;;;;4.54;46.68;93444.41;6228117;23;20388;-79
2023/02/16 03:04:20;;;;;;;8.25;3.30;;;;;;;4.55;46.46;93453.78;6230121;23;20008;-78
2023/02/16 03:06:50;;;;;;;5.75;3.03;;;;;;;4.52;46.52;93452.41;6229550;23;20019;-79
2023/02/16 03:09:17;;;;;;;7.55;3.25;;;;;;;4.56;46.28;93452.75;6204843;23;20012;-78
2023/02/16 03:14:34;;;;;;;7.53;3.47;;;;;;;4.50;46.28;93446.66;6231362;23;20020;-78
2023/02/16 03:31:00;;;;;;;11.93;4.78;;;;;;;4.42;48.27;93448.81;6230934;23;20044;-79
2023/02/16 03:33:27;;;;;;;9.90;4.68;;;;;;;4.40;48.16;93443.84;6230865;22;20015;-78
2023/02/16 03:35:54;;;;;;;9.65;4.40;;;;;;;4.41;47.92;93444.63;6229980;23;20013;-79
2023/02/16 03:38:20;;;;;;;10.52;4.50;;;;;;;4.41;48.01;93444.63;6231198;23;20052;-78
2023/02/16 03:40:48;;;;;;;10.10;4.53;;;;;;;4.40;48.05;93445.63;6230712;23;20044;-79
2023/02/16 03:43:13;;;;;;;12.40;4.78;;;;;;;4.40;48.01;93443.03;6230947;23;20197;-79
2023/02/16 03:45:41;;;;;;;9.70;4.78;;;;;;;4.36;48.78;93448.66;6231132;23;20017;-78
2023/02/16 03:48:07;;;;;;;12.10;5.13;;;;;;;4.32;49.08;93444.97;6229909;23;20000;-79
2023/02/16 03:50:32;;;;;;;11.90;4.55;;;;;;;4.28;48.83;93449.00;6231471;23;20036;-80
2023/02/16 03:53:07;;;;;;;10.45;4.35;;;;;;;4.24;49.20;93445.28;6230023;23;20007;-77
2023/02/16 03:55:45;;;;;;;11.55;5.50;;;;;;;4.23;49.24;93441.09;6227260;23;20044;-79
2023/02/16 03:58:13;;;;;;;14.88;6.25;;;;;;;4.19;49.52;93429.63;6225950;23;20008;-78
2023/02/16 04:00:39;;;;;;;13.55;6.32;;;;;;;4.22;49.65;93436.94;6225554;23;20012;-78
2023/02/16 04:03:06;;;;;;;16.10;5.88;;;;;;;4.19;50.31;93437.38;6225936;23;20012;-78
2023/02/16 04:05:32;;;;;;;12.77;5.63;;;;;;;4.15;50.56;93444.03;6201397;23;20099;-79
2023/02/16 04:07:58;;;;;;;13.50;5.15;;;;;;;4.14;50.01;93445.03;6231233;23;20013;-78
2023/02/16 04:10:24;;;;;;;14.07;5.68;;;;;;;4.12;49.70;93434.09;6204462;23;20054;-79
2023/02/16 04:12:49;;;;;;;9.80;4.57;;;;;;;4.13;49.90;93433.09;6198964;23;20017;-78
2023/02/16 04:15:18;;;;;;;11.40;4.40;;;;;;;4.12;50.08;93440.09;6200563;23;20020;-78
2023/02/16 04:17:44;;;;;;;8.98;4.38;;;;;;;4.06;50.00;93433.19;6198924;23;20019;-78
2023/02/16 04:20:13;;;;;;;8.27;4.10;;;;;;;4.08;49.90;93433.75;6198623;23;20035;-78
2023/02/16 04:22:39;;;;;;;9.93;4.55;;;;;;;4.06;49.81;93440.19;6225386;23;20012;-78
2023/02/16 04:25:06;;;;;;;7.53;4.03;;;;;;;4.03;49.72;93441.41;6225783;23;20001;-77
2023/02/16 04:27:33;;;;;;;9.13;4.25;;;;;;;4.02;49.62;93441.63;6225431;23;20019;-79
2023/02/16 04:29:58;;;;;;;6.97;3.35;;;;;;;3.99;49.92;93437.69;6225967;23;20087;-79
2023/02/16 04:32:24;;;;;;;7.15;3.90;;;;;;;3.99;50.02;93449.84;6174677;23;20484;-78
2023/02/16 04:34:49;;;;;;;8.43;3.25;;;;;;;3.95;49.70;93447.69;6224978;23;20005;-78
2023/02/16 04:37:15;;;;;;;7.80;3.60;;;;;;;3.92;49.81;93445.56;6225867;23;20012;-77
2023/02/16 04:39:41;;;;;;;9.23;4.18;;;;;;;3.92;49.65;93444.78;6225678;23;20004;-77
2023/02/16 04:42:06;;;;;;;7.13;3.80;;;;;;;3.90;49.49;93447.56;6225047;23;20091;-78
2023/02/16 04:44:32;;;;;;;12.25;5.38;;;;;;;3.89;50.20;93440.78;6224496;23;20000;-78
2023/02/16 04:46:57;;;;;;;13.75;5.90;;;;;;;3.90;50.46;93441.59;6225773;23;20020;-77
2023/02/16 04:49:23;;;;;;;15.27;6.22;;;;;;;3.92;50.68;93439.59;6224574;23;20028;-78
2023/02/16 04:51:49;;;;;;;17.08;6.35;;;;;;;3.93;50.89;93443.75;6229338;23;20334;-79
2023/02/16 04:54:14;;;;;;;15.30;5.78;;;;;;;3.94;51.15;93446.13;6230659;23;20000;-79
2023/02/16 04:56:43;;;;;;;12.38;5.55;;;;;;;3.97;50.58;93442.28;6252717;23;20013;-78
2023/02/16 04:59:09;;;;;;;15.38;5.05;;;;;;;3.96;50.89;93446.69;6230243;23;20016;-79
2023/02/16 05:01:34;;;;;;;7.80;3.47;;;;;;;3.94;50.29;93443.53;6230984;23;20201;-79
2023/02/16 05:04:00;;;;;;;6.85;2.88;;;;;;;3.95;49.32;93447.69;6228969;23;20035;-79
2023/02/16 05:06:25;;;;;;;7.30;2.65;;;;;;;3.92;48.54;93437.00;6229118;23;20016;-79
2023/02/16 05:08:51;;;;;;;6.60;2.30;;;;;;;3.92;48.21;93440.38;6226475;23;20024;-78
2023/02/16 05:16:45;;;;;;;5.07;1.65;;;;;;;3.87;47.12;93437.66;6230386;23;20618;-79
2023/02/16 05:19:11;;;;;;;5.32;2.10;;;;;;;3.84;46.92;93443.25;6227921;23;20012;-79
2023/02/16 05:21:37;;;;;;;4.95;2.20;;;;;;;3.81;46.90;93435.94;6230075;23;20043;-79
2023/02/16 05:24:10;;;;;;;5.00;2.15;;;;;;;3.77;47.11;93445.16;6228755;23;20000;-79
2023/02/16 05:26:40;;;;;;;4.55;2.17;;;;;;;3.74;47.40;93443.81;6229518;23;20016;-79
2023/02/16 05:29:06;;;;;;;5.15;2.20;;;;;;;3.71;47.31;93443.44;6229378;23;20024;-79
2023/02/16 05:31:32;;;;;;;4.95;2.45;;;;;;;3.70;47.63;93447.06;6229353;23;20024;-79
2023/02/16 05:33:58;;;;;;;9.32;3.35;;;;;;;3.72;47.52;93442.44;6226560;23;20023;-79
2023/02/16 05:36:23;;;;;;;9.48;4.05;;;;;;;3.71;47.75;93438.25;6222244;23;19996;-78
2023/02/16 05:38:49;;;;;;;9.23;3.70;;;;;;;3.77;47.56;93445.16;6195008;23;20096;-78
2023/02/16 05:41:22;;;;;;;6.07;2.60;;;;;;;3.80;47.68;93442.13;6223974;23;19997;-79
2023/02/16 05:43:58;;;;;;;4.85;2.28;;;;;;;3.82;47.45;93447.88;6192029;23;20036;-81
2023/02/16 05:46:25;;;;;;;6.95;2.50;;;;;;;3.84;47.05;93451.03;6217501;23;20092;-82
2023/02/16 05:48:51;;;;;;;4.78;2.50;;;;;;;3.91;46.06;93443.97;6217839;23;20011;-81
2023/02/16 05:51:18;;;;;;;6.32;2.63;;;;;;;4.02;45.22;93444.22;6216440;23;20047;-81
2023/02/16 05:53:44;;;;;;;4.85;2.25;;;;;;;4.06;45.42;93438.38;6220109;23;20344;-81
2023/02/16 05:56:10;;;;;;;3.42;1.65;;;;;;;4.10;45.56;93447.28;6217180;23;20048;-79
2023/02/16 05:58:36;;;;;;;3.72;2.00;;;;;;;4.10;45.56;93447.28;6218540;23;20039;-79
2023/02/16 06:01:01;;;;;;;5.63;1.75;;;;;;;4.09;45.62;93447.50;6214877;23;20052;-79
2023/02/16 06:03:27;;;;;;;5.30;2.00;;;;;;;4.07;45.72;93449.53;6216011;23;20028;-79
2023/02/16 06:05:58;;;;;;;5.32;1.90;;;;;;;4.06;45.60;93450.53;6216504;23;20469;-79
2023/02/16 06:08:24;;;;;;;5.18;2.22;;;;;;;4.06;46.29;93450.53;6216220;23;20073;-79
2023/02/16 06:10:50;;;;;;;5.45;2.65;;;;;;;4.04;46.45;93449.97;6218330;23;20008;-79
2023/02/16 06:13:17;;;;;;;6.30;2.20;;;;;;;4.00;46.46;93454.00;6190963;23;20012;-79
2023/02/16 06:15:43;;;;;;;5.53;2.38;;;;;;;4.04;46.18;93465.53;6218777;23;20000;-79
2023/02/16 06:18:10;;;;;;;6.63;2.40;;;;;;;4.03;46.39;93466.50;6216152;23;20016;-80
2023/02/16 06:20:39;;;;;;;6.40;3.00;;;;;;;4.03;46.31;93462.16;6215642;23;20001;-80
2023/02/16 06:23:07;;;;;;;6.65;2.55;;;;;;;4.06;46.25;93466.09;6217361;23;20023;-79
2023/02/16 06:25:33;;;;;;;7.80;2.88;;;;;;;4.09;46.32;93465.63;6216852;23;20009;-80
2023/02/16 06:27:58;;;;;;;7.47;2.97;;;;;;;4.11;46.64;93471.38;6215245;23;20076;-79
2023/02/16 06:30:24;;;;;;;6.85;2.97;;;;;;;4.11;46.56;93473.97;6219414;23;20028;-78
2023/02/16 06:32:50;;;;;;;7.10;3.38;;;;;;;4.11;46.75;93471.38;6221678;23;20349;-78
2023/02/16 06:35:16;;;;;;;11.25;3.38;;;;;;;4.11;47.00;93476.56;6223150;23;20001;-78
2023/02/16 06:37:42;;;;;;;8.00;3.50;;;;;;;4.11;47.34;93474.75;6223991;23;20020;-80
2023/02/16 06:40:09;;;;;;;10.32;4.18;;;;;;;4.14;47.28;93478.72;6224322;23;20000;-81
2023/02/16 06:42:35;;;;;;;7.70;3.65;;;;;;;4.17;47.46;93478.28;6227183;23;20035;-81
2023/02/16 06:45:02;;;;;;;6.82;3.40;;;;;;;4.21;47.52;93484.63;6226292;23;20007;-81
2023/02/16 06:47:28;;;;;;;7.35;3.13;;;;;;;4.21;47.06;93479.44;6226401;23;20019;-80
2023/02/16 06:49:54;;;;;;;9.60;2.90;;;;;;;4.30;47.02;93488.47;6223859;23;20028;-80
2023/02/16 06:52:19;;;;;;;7.95;3.05;;;;;;;4.34;47.65;93489.56;6226279;23;20016;-81
2023/02/16 06:54:45;;;;;;;7.25;2.83;;;;;;;4.37;47.37;93483.97;6224690;23;20000;-81
2023/02/16 06:57:11;;;;;;;5.85;2.88;;;;;;;4.44;47.42;93496.03;6199711;23;20028;-79
2023/02/16 06:59:36;;;;;;;6.18;2.78;;;;;;;4.50;47.40;93488.16;6199495;23;20079;-79
2023/02/16 07:02:02;;;;;;;6.47;3.22;;;;;;;4.59;46.89;93496.38;6223843;23;20016;-79
2023/02/16 07:04:28;;;;;;;5.72;2.75;;;;;;;4.70;47.00;93492.22;6200103;23;20054;-79
2023/02/16 07:06:53;;;;;;;9.45;2.97;;;;;;;4.97;46.36;93497.75;6199157;23;20017;-81
2023/02/16 07:09:19;;;;;;;11.80;2.75;;;;;;;5.70;45.84;93500.81;6199882;23;20373;-79
2023/02/16 07:11:45;;;;;;;8.40;3.00;;;;;;;6.53;44.50;93501.22;6199178;23;20048;-80
2023/02/16 07:14:10;;;;;;;7.32;3.35;;;;;;;7.75;42.09;93503.97;6226432;23;20000;-82
2023/02/16 07:16:36;;;;;;;6.60;3.38;;;;;;;8.95;39.19;93494.13;6225861;23;20012;-80
2023/02/16 07:19:01;;;;;;;6.10;2.65;;;;;;;9.69;37.89;93494.25;6225262;23;20004;-83
2023/02/16 07:21:27;;;;;;;6.75;3.05;;;;;;;9.83;36.47;93499.81;6224845;23;20019;-83
2023/02/16 07:23:52;;;;;;;6.07;2.75;;;;;;;9.74;36.18;93502.91;6225443;23;20079;-82
2023/02/16 07:26:18;;;;;;;6.80;2.72;;;;;;;9.72;36.53;93504.97;6223923;23;20030;-81
2023/02/16 07:28:43;;;;;;;6.22;2.72;;;;;;;10.16;35.25;93496.75;6173534;23;20035;-83
2023/02/16 07:31:11;;;;;;;5.90;2.60;;;;;;;10.68;34.48;93504.72;6198742;23;20452;-81
2023/02/16 07:33:37;;;;;;;7.03;2.72;;;;;;;11.58;33.68;93514.59;6196630;23;19996;-82
2023/02/16 07:36:04;;;;;;;4.75;2.30;;;;;;;12.91;31.43;93509.44;6196718;23;20404;-82
2023/02/16 07:38:30;;;;;;;8.90;3.33;;;;;;;14.40;30.03;93507.09;6222765;23;20004;-82
2023/02/16 07:40:57;;;;;;;15.18;2.90;;;;;;;14.90;27.81;93504.81;6196367;23;20015;-82
2023/02/16 07:43:22;;;;;;;7.70;3.33;;;;;;;15.34;28.08;93514.13;6221667;23;20000;-82
2023/02/16 07:45:48;;;;;;;5.55;3.05;;;;;;;15.88;28.36;93517.91;6223113;23;20017;-83
2023/02/16 07:48:14;;;;;;;7.80;2.85;;;;;;;16.67;26.68;93516.81;6196455;23;20005;-81
2023/02/16 07:50:40;;;;;;;6.55;2.47;;;;;;;17.17;24.88;93514.09;6195205;23;20302;-81
2023/02/16 07:53:06;;;;;;;6.18;2.35;;;;;;;18.08;23.75;93504.91;6195196;23;20009;-81
2023/02/16 07:55:32;;;;;;;8.00;3.35;;;;;;;18.50;23.21;93509.81;6221127;23;20009;-83
2023/02/16 07:57:58;;;;;;;9.27;3.90;;;;;;;18.22;23.34;93511.97;6222066;23;20008;-81
2023/02/16 08:00:25;;;;;;;7.93;3.90;;;;;;;18.72;22.59;93508.91;6220206;23;20016;-81
2023/02/16 08:02:51;;;;;;;9.43;4.82;;;;;;;18.20;22.86;93512.25;6195850;23;20005;-81
2023/02/16 08:05:17;;;;;;;7.80;4.50;;;;;;;18.29;24.13;93515.69;6194864;23;20091;-82
2023/02/16 08:07:43;;;;;;;9.88;4.35;;;;;;;17.20;25.42;93510.06;6223189;23;20001;-81
2023/02/16 08:10:11;;;;;;;13.70;4.15;;;;;;;16.92;25.93;93515.50;6221042;23;20040;-81
2023/02/16 08:12:37;;;;;;;15.23;4.15;;;;;;;16.17;27.24;93522.13;6196315;23;20009;-82
2023/02/16 08:15:03;;;;;;;10.80;4.13;;;;;;;15.90;27.63;93515.78;6223441;23;20051;-80
2023/02/16 08:17:29;;;;;;;8.63;3.58;;;;;;;15.35;28.09;93526.22;6223025;23;20061;-81
2023/02/16 08:19:54;;;;;;;11.75;4.95;;;;;;;15.47;28.17;93529.19;6222135;23;20019;-80
2023/02/16 08:22:20;;;;;;;8.88;4.13;;;;;;;15.07;28.59;93522.75;6224181;23;20322;-82
2023/02/16 08:24:46;;;;;;;7.72;4.07;;;;;;;15.16;28.44;93524.44;6196559;23;20437;-79
2023/02/16 08:27:11;;;;;;;9.15;4.53;;;;;;;14.97;28.56;93526.31;6196191;23;20005;-81
2023/02/16 08:29:37;;;;;;;10.82;4.28;;;;;;;14.29;29.99;93530.91;6222738;23;20445;-81
2023/02/16 08:32:06;;;;;;;9.60;4.47;;;;;;;14.51;29.58;93522.47;6223460;23;20095;-81
2023/02/16 08:34:34;;;;;;;10.80;5.03;;;;;;;14.03;29.43;93529.69;6223852;23;20096;-81
2023/02/16 08:37:01;;;;;;;9.60;4.55;;;;;;;14.66;29.65;93518.88;6223165;23;19997;-81
2023/02/16 08:39:30;;;;;;;14.23;6.10;;;;;;;13.86;31.52;93514.34;6197324;23;20016;-80
2023/02/16 08:41:57;;;;;;;11.02;5.20;;;;;;;13.69;30.28;93520.03;6197348;23;19997;-81
2023/02/16 08:44:24;;;;;;;15.95;7.22;;;;;;;13.60;30.52;93527.78;6195859;23;20047;-82
2023/02/16 08:46:52;;;;;;;14.65;6.28;;;;;;;13.92;29.41;93524.53;6196006;23;20008;-79
2023/02/16 08:49:20;;;;;;;15.48;6.43;;;;;;;14.05;29.56;93517.00;6222572;23;20012;-81
2023/02/16 08:51:49;;;;;;;14.80;6.45;;;;;;;13.99;28.36;93520.78;6222551;23;20441;-82
2023/02/16 08:54:20;;;;;;;9.32;4.97;;;;;;;13.54;28.93;93524.41;6222375;23;20017;-81
2023/02/16 08:56:48;;;;;;;13.35;4.82;;;;;;;13.42;29.19;93525.84;6222134;23;20017;-82
2023/02/16 08:59:15;;;;;;;10.73;5.30;;;;;;;13.27;29.88;93529.38;6222469;23;20459;-80
2023/02/16 09:01:41;;;;;;;16.48;7.68;;;;;;;13.82;29.26;93529.13;6223244;23;20016;-80
2023/02/16 09:04:07;;;;;;;14.90;6.93;;;;;;;13.65;29.16;93532.22;6197350;23;20000;-81
2023/02/16 09:06:37;;;;;;;19.73;8.23;;;;;;;13.81;27.84;93533.59;6196978;23;20067;-81
2023/02/16 09:09:03;;;;;;;17.77;7.60;;;;;;;13.55;28.99;93538.34;6224006;23;20043;-80
2023/02/16 09:11:29;;;;;;;13.98;7.57;;;;;;;13.77;29.24;93529.97;6223722;23;20348;-80
2023/02/16 09:13:56;;;;;;;14.10;6.68;;;;;;;13.83;28.79;93536.75;6222638;23;20012;-80
2023/02/16 09:16:23;;;;;;;13.07;6.80;;;;;;;13.21;30.05;93530.47;6221200;23;20009;-80
2023/02/16 09:18:49;;;;;;;19.05;9.07;;;;;;;13.34;30.43;93529.88;6196325;23;19996;-81
2023/02/16 09:21:18;;;;;;;22.65;9.57;;;;;;;14.27;29.72;93529.63;6222879;23;20051;-82
2023/02/16 09:23:47;;;;;;;21.75;9.90;;;;;;;14.38;28.79;93531.84;6196490;23;20029;-81
2023/02/16 09:26:15;;;;;;;21.98;9.13;;;;;;;14.19;29.72;93525.78;6223145;23;20013;-80
2023/02/16 09:28:42;;;;;;;22.73;9.18;;;;;;;14.15;29.28;93537.97;6223406;23;20013;-81
2023/02/16 09:31:22;;;;;;;18.02;7.90;;;;;;;14.30;28.79;93527.22;6196053;23;20067;-82
2023/02/16 09:33:48;;;;;;;16.23;8.00;;;;;;;14.02;30.16;93534.16;6222873;23;20008;-81
2023/02/16 09:36:13;;;;;;;18.73;8.23;;;;;;;13.88;30.48;93533.28;6223502;23;20092;-81
2023/02/16 09:38:40;;;;;;;20.42;8.77;;;;;;;13.82;29.90;93537.00;6223286;23;20449;-81
2023/02/16 09:41:22;;;;;;;18.73;8.52;;;;;;;13.65;30.42;93542.72;6222519;23;20008;-81
2023/02/16 09:43:52;;;;;;;16.95;8.52;;;;;;;13.67;29.72;93535.34;6221373;23;20012;-81
2023/02/16 09:46:21;;;;;;;19.73;10.23;;;;;;;13.61;29.93;93544.34;6222891;23;20116;-82
2023/02/16 09:48:49;;;;;;;21.58;10.13;;;;;;;14.13;29.08;93546.13;6196393;23;20056;-81
2023/02/16 09:51:30;;;;;;;15.77;6.85;;;;;;;14.33;29.27;93542.47;6223853;23;20017;-81
2023/02/16 09:54:04;;;;;;;17.33;7.80;;;;;;;14.24;29.92;93544.16;6223794;23;20016;-82
2023/02/16 09:56:46;;;;;;;16.98;8.02;;;;;;;14.05;29.62;93553.84;6217373;23;20019;-82
2023/02/16 09:59:37;;;;;;;18.40;8.80;;;;;;;13.60;30.46;93553.28;6223009;23;20009;-83
2023/02/16 10:02:33;;;;;;;21.58;9.05;;;;;;;13.43;31.09;93549.25;6212981;23;20012;-82
2023/02/16 10:05:20;;;;;;;16.02;7.57;;;;;;;13.42;31.94;93546.88;6217370;23;20023;-82
2023/02/16 10:07:55;;;;;;;14.38;6.88;;;;;;;13.13;32.29;93547.66;6224254;23;20472;-82
2023/02/16 10:10:24;;;;;;;15.82;4.88;;;;;;;13.20;31.25;93549.97;6223433;23;20503;-81
2023/02/16 10:12:57;;;;;;;14.10;6.60;;;;;;;13.81;30.46;93544.13;6197080;23;20028;-83
2023/02/16 10:15:29;;;;;;;12.18;5.43;;;;;;;13.67;31.62;93544.03;6222402;23;20020;-82
2023/02/16 10:17:58;;;;;;;16.55;5.68;;;;;;;13.62;31.00;93538.00;6222059;23;20087;-82
2023/02/16 10:20:36;;;;;;;14.90;6.57;;;;;;;13.58;31.91;93539.63;6220282;23;20035;-80
2023/02/16 10:23:31;;;;;;;13.80;6.55;;;;;;;13.80;31.24;93542.53;6220927;23;20013;-81
2023/02/16 10:26:23;;;;;;;17.15;6.80;;;;;;;13.42;31.00;93550.31;6222687;23;20070;-81
2023/02/16 10:28:50;;;;;;;15.95;6.68;;;;;;;13.10;32.04;93543.72;6221890;23;20075;-81
2023/02/16 10:31:34;;;;;;;15.68;6.93;;;;;;;13.75;31.43;93547.88;6220828;23;19996;-80
2023/02/16 10:34:45;;;;;;;23.50;10.10;;;;;;;13.27;32.34;93551.19;6221587;23;20012;-81
2023/02/16 10:37:22;;;;;;;21.77;9.25;;;;;;;13.72;32.20;93546.59;6205950;23;20023;-81
2023/02/16 10:40:17;;;;;;;29.33;11.55;;;;;;;13.32;32.33;93545.91;6221318;23;20009;-80
2023/02/16 10:42:52;;;;;;;25.13;10.98;;;;;;;13.36;32.88;93548.78;6221693;23;20066;-81
2023/02/16 10:45:26;;;;;;;28.45;11.70;;;;;;;13.30;32.63;93539.38;6220211;23;20043;-80
2023/02/16 10:47:51;;;;;;;20.85;10.38;;;;;;;13.57;32.47;93540.69;6220894;23;20012;-81
2023/02/16 10:50:29;;;;;;;24.90;11.57;;;;;;;13.90;33.40;93541.66;6221101;23;20011;-80
2023/02/16 10:53:03;;;;;;;27.13;12.93;;;;;;;14.32;31.47;93538.28;6222606;23;20012;-81
2023/02/16 10:55:28;;;;;;;19.05;8.98;;;;;;;14.15;32.29;93535.31;6220069;23;20080;-81
2023/02/16 10:58:00;;;;;;;31.88;12.88;;;;;;;13.85;32.40;93539.88;6221861;23;20016;-82
2023/02/16 11:00:57;;;;;;;21.03;10.07;;;;;;;13.70;32.83;93538.19;6195355;23;20023;-81
2023/02/16 11:03:28;;;;;;;13.30;6.72;;;;;;;13.80;32.84;93525.97;6116705;23;20016;-81
2023/02/16 11:05:54;;;;;;;31.85;14.38;;;;;;;13.97;32.92;93523.69;6221833;23;20012;-80
2023/02/16 11:08:19;;;;;;;24.75;10.30;;;;;;;13.72;32.75;93522.91;6169596;23;20036;-81
2023/02/16 11:10:53;;;;;;;20.35;9.07;;;;;;;13.97;33.27;93523.69;6222243;23;20066;-80
2023/02/16 11:13:36;;;;;;;36.40;14.73;;;;;;;13.81;33.57;93519.66;6194964;23;20016;-80
2023/02/16 11:16:12;;;;;;;39.25;17.40;;;;;;;13.90;33.48;93525.88;6221760;23;20007;-80
2023/02/16 11:18:45;;;;;;;37.88;13.95;;;;;;;13.74;34.04;93515.53;6221660;23;20020;-80
2023/02/16 11:21:12;;;;;;;37.13;16.77;;;;;;;13.66;34.13;93515.34;6219199;23;20008;-81
2023/02/16 11:23:39;;;;;;;38.08;17.63;;;;;;;13.69;34.41;93523.47;6221255;23;20016;-81
2023/02/16 11:26:11;;;;;;;25.42;10.65;;;;;;;13.32;35.12;93506.47;6221460;23;20032;-79
2023/02/16 11:28:43;;;;;;;39.13;16.63;;;;;;;13.23;35.64;93507.31;6223578;23;20448;-81
2023/02/16 11:31:08;;;;;;;48.17;20.75;;;;;;;13.29;35.43;93508.88;6224533;23;20072;-81
2023/02/16 11:33:36;;;;;;;47.70;18.33;;;;;;;13.35;35.27;93506.97;6172228;23;20001;-81
2023/02/16 11:36:17;;;;;;;44.97;19.08;;;;;;;13.15;35.24;93507.91;6223950;23;20012;-82
2023/02/16 11:38:56;;;;;;;20.42;10.57;;;;;;;13.25;35.81;93505.97;6195576;23;20016;-81
2023/02/16 11:41:24;;;;;;;30.42;12.80;;;;;;;13.19;35.63;93506.31;6224023;23;20024;-80
2023/02/16 11:43:49;;;;;;;49.80;18.90;;;;;;;13.20;36.28;93497.38;6222343;23;20005;-81
2023/02/16 11:46:19;;;;;;;52.42;22.00;;;;;;;13.15;36.18;93492.94;6224284;23;20024;-79
2023/02/16 11:48:45;;;;;;;37.63;16.83;;;;;;;13.05;36.24;93493.03;6223957;23;20050;-81
2023/02/16 11:51:14;;;;;;;48.45;20.90;;;;;;;13.02;37.24;93497.00;6196987;23;20012;-82
2023/02/16 11:53:43;;;;;;;37.22;15.07;;;;;;;13.18;36.51;93488.97;6223409;23;20023;-81
2023/02/16 11:56:24;;;;;;;43.38;17.02;;;;;;;12.81;36.76;93485.06;6223082;23;20042;-80
2023/02/16 11:59:23;;;;;;;42.75;17.05;;;;;;;12.85;37.44;93479.00;6196697;23;20020;-80
2023/02/16 12:02:01;;;;;;;55.45;22.77;;;;;;;12.64;37.07;93481.00;6193674;23;20059;-81
2023/02/16 12:05:06;;;;;;;26.23;13.73;;;;;;;12.71;37.65;93485.94;6222273;23;20013;-80
2023/02/16 12:08:08;;;;;;;50.78;21.85;;;;;;;12.97;36.69;93473.41;6196235;23;20009;-82
2023/02/16 12:11:09;;;;;;;44.22;19.88;;;;;;;13.03;37.08;93474.13;6223331;23;20067;-82
2023/02/16 12:13:52;;;;;;;49.55;20.48;;;;;;;13.07;37.07;93468.03;6196179;23;20448;-82
2023/02/16 12:16:30;;;;;;;45.35;17.60;;;;;;;12.95;37.77;93469.44;6222410;23;20012;-82
2023/02/16 12:19:04;;;;;;;38.05;17.13;;;;;;;12.74;38.39;93464.38;6196501;23;20008;-82
2023/02/16 12:21:36;;;;;;;37.95;18.35;;;;;;;12.69;38.37;93465.19;6196088;23;20476;-82
2023/02/16 12:24:33;;;;;;;38.65;16.02;;;;;;;13.00;38.67;93467.56;6222188;23;20345;-82
2023/02/16 12:27:20;;;;;;;28.52;14.02;;;;;;;12.92;38.60;93460.28;6221798;23;20387;-82
2023/02/16 12:30:10;;;;;;;48.10;20.77;;;;;;;12.85;39.71;93463.22;6195638;23;20023;-80
2023/02/16 12:32:46;;;;;;;49.15;20.05;;;;;;;12.95;40.11;93454.50;6219463;23;20027;-81